Time;durP1;ratioP1;P1;durP2;ratioP2;P2;SDS_P1;SDS_P2;PMS_P1;PMS_P2;Temp;Humidity;BMP_temperature;BMP_pressure;BME280_temperature;BME280_humidity;BME280_pressure;Samples;Min_cycle;Max_cycle;Signal;HPM_P1;HPM_P2
2023/02/21 02:17:02;;;;;;;31.48;12.75;;;;;;;-10.55;69.35;97165.13;5069678;28;20490;-37
2023/02/21 02:19:37;;;;;;;33.38;11.82;;;;;;;-10.58;69.06;97160.94;5084507;28;20049;-37
2023/02/21 02:22:18;;;;;;;32.65;12.48;;;;;;;-10.56;69.18;97168.44;5053271;28;20139;-42
2023/02/21 02:25:30;;;;;;;31.90;10.30;;;;;;;-10.57;68.92;97165.09;5053580;28;20044;-38
2023/02/21 02:28:19;;;;;;;35.30;11.77;;;;;;;-10.55;68.44;97162.59;5059673;28;20048;-38
2023/02/21 02:31:01;;;;;;;35.47;12.43;;;;;;;-10.52;69.07;97163.47;5069844;28;20051;-37
2023/02/21 02:33:33;;;;;;;30.63;12.18;;;;;;;-10.53;68.80;97169.34;5103604;28;20040;-37
2023/02/21 02:36:05;;;;;;;34.70;12.77;;;;;;;-10.53;69.00;97168.50;5074020;28;20522;-38
2023/02/21 02:38:51;;;;;;;32.42;11.27;;;;;;;-10.50;68.56;97166.84;5089964;28;20051;-37
2023/02/21 02:41:55;;;;;;;33.33;11.82;;;;;;;-10.51;67.99;97157.63;5085007;28;20439;-37
2023/02/21 02:44:38;;;;;;;35.00;11.50;;;;;;;-10.55;68.48;97165.13;5059609;28;20064;-37
2023/02/21 02:47:06;;;;;;;36.90;11.63;;;;;;;-10.54;68.09;97169.31;5098659;28;20096;-37
2023/02/21 02:49:35;;;;;;;30.02;11.77;;;;;;;-10.53;68.25;97165.97;5065933;28;20415;-38
2023/02/21 02:52:03;;;;;;;30.40;11.75;;;;;;;-10.58;67.50;97155.06;5074412;28;20036;-38
2023/02/21 02:54:30;;;;;;;37.03;11.73;;;;;;;-10.56;67.86;97164.28;5059684;28;20075;-39
2023/02/21 02:56:57;;;;;;;40.47;12.25;;;;;;;-10.58;67.54;97160.94;5070350;28;20068;-38
2023/02/21 02:59:28;;;;;;;34.97;11.88;;;;;;;-10.57;68.10;97164.28;5069454;28;20044;-38
2023/02/21 03:01:55;;;;;;;36.00;11.85;;;;;;;-10.53;67.97;97158.44;5052697;28;20036;-38
2023/02/21 03:04:27;;;;;;;36.55;12.18;;;;;;;-10.52;67.06;97170.19;5072348;28;20059;-40
2023/02/21 03:07:21;;;;;;;34.83;12.00;;;;;;;-10.78;67.58;97114.78;5102850;28;20597;-37
2023/02/21 03:10:09;;;;;;;30.83;11.20;;;;;;;-10.53;66.98;97154.28;5081576;28;20045;-38
2023/02/21 03:12:58;;;;;;;33.08;10.27;;;;;;;-10.52;67.68;97153.41;5051267;28;20054;-38
2023/02/21 03:15:28;;;;;;;28.38;10.85;;;;;;;-10.55;67.05;97158.44;5072790;28;20105;-38
2023/02/21 03:18:21;;;;;;;28.00;10.85;;;;;;;-10.61;66.91;97162.56;5046781;28;20455;-38
2023/02/21 03:20:53;;;;;;;29.08;10.45;;;;;;;-10.63;67.15;97151.69;5067011;28;20135;-37
2023/02/21 03:23:20;;;;;;;32.15;12.05;;;;;;;-10.78;67.13;97129.84;5053477;28;20047;-37
2023/02/21 03:25:47;;;;;;;43.83;12.27;;;;;;;-10.55;67.00;97153.41;5063522;28;20511;-37
2023/02/21 03:28:15;;;;;;;35.28;12.65;;;;;;;-10.99;66.18;97082.00;5067132;28;20103;-37
2023/02/21 03:30:44;;;;;;;30.02;12.57;;;;;;;-10.55;66.47;97150.06;5084156;28;20091;-37
2023/02/21 03:33:10;;;;;;;33.95;12.30;;;;;;;-10.55;66.83;97155.91;5067473;28;20078;-38
2023/02/21 03:35:37;;;;;;;30.27;12.48;;;;;;;-10.58;66.96;97153.41;5079856;28;20290;-37
2023/02/21 03:38:03;;;;;;;33.60;12.25;;;;;;;-10.86;66.14;97114.72;5079255;28;20508;-38
2023/02/21 03:40:31;;;;;;;31.05;10.90;;;;;;;-10.64;66.16;97155.84;5066509;28;20041;-37
2023/02/21 03:43:00;;;;;;;30.15;11.05;;;;;;;-10.74;66.87;97142.41;5055278;28;20101;-37
2023/02/21 03:45:29;;;;;;;37.00;13.00;;;;;;;-10.78;66.73;97147.41;5056517;28;20056;-37
2023/02/21 03:48:20;;;;;;;31.23;10.70;;;;;;;-10.87;66.88;97149.81;5066346;28;20060;-37
2023/02/21 03:50:46;;;;;;;32.88;11.75;;;;;;;-11.01;66.26;97148.84;5082660;28;20048;-38
2023/02/21 03:53:14;;;;;;;28.80;11.70;;;;;;;-11.15;66.21;97151.25;5056757;28;20059;-38
2023/02/21 03:55:43;;;;;;;28.50;11.23;;;;;;;-11.28;66.43;97150.28;5064207;28;20067;-37
2023/02/21 03:58:15;;;;;;;32.75;10.65;;;;;;;-11.35;66.62;97153.53;5069061;28;20129;-37
2023/02/21 04:00:42;;;;;;;32.85;12.15;;;;;;;-11.44;66.67;97150.94;5066130;28;20040;-38
2023/02/21 04:03:08;;;;;;;36.65;11.82;;;;;;;-11.54;66.37;97146.66;5080773;28;20040;-37
2023/02/21 04:05:37;;;;;;;;;;;;;;;-11.60;66.47;97149.94;5042034;28;20561;-38
2023/02/21 04:08:04;;;;;;;24.92;9.95;;;;;;;-11.92;66.70;97120.34;5077352;28;19959;-39
2023/02/21 04:10:31;;;;;;;31.13;10.70;;;;;;;-11.80;67.03;97146.41;5079093;28;20036;-38
2023/02/21 04:12:57;;;;;;;30.33;10.85;;;;;;;-11.84;67.29;97151.34;5062330;28;20044;-36
2023/02/21 04:15:24;;;;;;;26.38;9.73;;;;;;;-11.88;67.42;97150.47;5060789;28;20546;-38
2023/02/21 04:17:49;;;;;;;29.92;11.55;;;;;;;-11.92;67.62;97150.41;5069750;28;20047;-38
2023/02/21 04:20:15;;;;;;;36.47;11.48;;;;;;;-11.97;67.52;97152.00;5069616;28;20123;-38
2023/02/21 04:22:47;;;;;;;30.13;11.38;;;;;;;-12.03;67.53;97151.09;5066922;28;20143;-38
2023/02/21 04:25:13;;;;;;;32.88;10.18;;;;;;;-12.05;67.71;97156.94;5051526;28;20123;-36
2023/02/21 04:27:49;;;;;;;26.17;11.13;;;;;;;-12.38;67.48;97109.78;5086901;28;20051;-36
2023/02/21 04:30:15;;;;;;;24.17;9.32;;;;;;;-12.36;67.84;97122.31;5067317;28;20045;-38
2023/02/21 04:32:41;;;;;;;25.60;11.07;;;;;;;-12.19;68.17;97165.91;5070325;28;20078;-38
2023/02/21 04:35:11;;;;;;;30.90;12.65;;;;;;;-12.38;67.57;97138.94;5087445;28;20409;-38
2023/02/21 04:37:37;;;;;;;28.80;10.35;;;;;;;-12.29;67.58;97167.44;5084614;28;20045;-37
2023/02/21 04:40:04;;;;;;;38.65;11.20;;;;;;;-12.30;68.42;97162.44;5064626;28;20061;-37
2023/02/21 04:42:33;;;;;;;31.55;11.30;;;;;;;-12.34;67.97;97168.19;5082031;28;20044;-36
2023/02/21 04:44:59;;;;;;;32.72;11.13;;;;;;;-12.36;68.23;97164.84;5070250;28;20043;-37
2023/02/21 04:47:25;;;;;;;30.10;11.57;;;;;;;-12.37;68.21;97176.53;5097328;28;20047;-39
2023/02/21 04:49:51;;;;;;;35.03;12.15;;;;;;;-12.36;68.32;97178.22;5088982;28;20039;-37
2023/02/21 04:52:20;;;;;;;20.70;7.55;;;;;;;-12.42;67.93;97167.25;5092538;28;20032;-38
2023/02/21 04:54:47;;;;;;;37.28;12.43;;;;;;;-12.54;68.11;97140.41;5094740;28;20039;-37
2023/02/21 04:57:14;;;;;;;32.33;12.13;;;;;;;-12.57;68.10;97143.72;5081969;28;20479;-36
2023/02/21 04:59:39;;;;;;;29.30;11.95;;;;;;;-12.56;68.20;97142.06;5082034;28;20370;-36
2023/02/21 05:02:07;;;;;;;32.55;12.45;;;;;;;-12.34;68.06;97179.06;5071763;28;20039;-37
2023/02/21 05:04:34;;;;;;;29.58;11.48;;;;;;;-12.25;68.12;97184.22;5077723;28;20506;-37
2023/02/21 05:07:01;;;;;;;33.85;11.38;;;;;;;-12.22;68.01;97181.75;5088876;28;20063;-36
2023/02/21 05:09:27;;;;;;;30.50;11.23;;;;;;;-12.27;67.96;97174.97;5069023;28;20123;-37
2023/02/21 05:11:53;;;;;;;31.40;11.52;;;;;;;-12.16;68.14;97180.97;5076958;28;20043;-37
2023/02/21 05:14:19;;;;;;;28.55;10.38;;;;;;;-12.11;68.56;97181.88;5050495;28;20037;-36
2023/02/21 05:16:45;;;;;;;35.30;11.93;;;;;;;-12.02;67.90;97182.84;5075782;28;20537;-38
2023/02/21 05:19:11;;;;;;;35.90;11.75;;;;;;;-11.94;67.88;97187.13;5103174;28;20051;-37
2023/02/21 05:21:37;;;;;;;30.35;11.68;;;;;;;-11.89;67.56;97185.53;5087172;28;20032;-37
2023/02/21 05:24:05;;;;;;;38.63;11.43;;;;;;;-11.82;67.49;97185.59;5087875;28;20063;-37
2023/02/21 05:26:37;;;;;;;36.20;11.88;;;;;;;-11.73;67.42;97184.88;5104169;28;20419;-38
2023/02/21 05:29:04;;;;;;;33.60;12.05;;;;;;;-11.65;67.65;97183.28;5077907;28;20033;-38
2023/02/21 05:31:30;;;;;;;31.70;11.68;;;;;;;-11.55;67.13;97185.06;5068039;28;20123;-37
2023/02/21 05:33:56;;;;;;;27.38;10.75;;;;;;;-11.48;66.68;97178.47;5084363;28;20777;-36
2023/02/21 05:36:25;;;;;;;36.22;12.55;;;;;;;-11.31;67.06;97189.53;5068238;28;20039;-37
2023/02/21 05:38:53;;;;;;;30.60;11.90;;;;;;;-11.16;66.31;97182.16;5071091;28;20043;-38
2023/02/21 05:41:19;;;;;;;35.40;12.40;;;;;;;-11.24;66.21;97156.16;5054289;28;20278;-37
2023/02/21 05:43:46;;;;;;;36.40;13.05;;;;;;;-10.84;66.28;97182.47;5073083;28;20085;-37
2023/02/21 05:46:24;;;;;;;38.50;12.68;;;;;;;-10.51;65.33;97184.38;5085852;28;20511;-37
2023/02/21 05:48:51;;;;;;;32.42;11.65;;;;;;;-10.18;64.91;97189.66;5094834;28;20462;-35
2023/02/21 05:51:17;;;;;;;34.90;11.70;;;;;;;-9.92;64.66;97189.78;5079440;28;20059;-38
2023/02/21 05:53:43;;;;;;;32.45;11.27;;;;;;;-9.71;64.81;97186.53;5086079;28;20078;-36
2023/02/21 05:56:10;;;;;;;32.78;12.50;;;;;;;-9.34;63.60;97190.88;5081612;28;20041;-37
2023/02/21 05:58:36;;;;;;;32.22;11.68;;;;;;;-8.83;63.41;97186.78;5077322;28;20039;-37
2023/02/21 06:01:02;;;;;;;36.25;12.75;;;;;;;-8.47;62.44;97188.47;5090612;28;20036;-38
2023/02/21 06:03:28;;;;;;;33.22;11.85;;;;;;;-8.04;61.82;97185.06;5063974;28;20036;-37
2023/02/21 06:05:54;;;;;;;29.67;11.70;;;;;;;-7.66;60.58;97182.47;5083924;28;20047;-37
2023/02/21 06:08:20;;;;;;;31.33;12.15;;;;;;;-7.22;59.88;97184.78;5071059;28;20051;-36
2023/02/21 06:10:46;;;;;;;32.00;13.35;;;;;;;-6.78;59.00;97179.50;5071756;28;20499;-37
2023/02/21 06:13:12;;;;;;;34.90;12.93;;;;;;;-6.58;58.03;97156.63;5090398;28;20044;-37
2023/02/21 06:15:38;;;;;;;36.60;13.88;;;;;;;-5.93;57.47;97186.38;5073321;28;20056;-37
2023/02/21 06:18:03;;;;;;;31.77;12.52;;;;;;;-5.76;56.96;97149.09;5071556;28;20068;-38
2023/02/21 06:20:29;;;;;;;44.58;13.68;;;;;;;-5.19;55.86;97182.16;5069547;28;20109;-37
2023/02/21 06:22:55;;;;;;;33.90;13.88;;;;;;;-4.74;55.06;97189.13;5071454;28;20043;-37
2023/02/21 06:25:21;;;;;;;34.30;14.63;;;;;;;-4.53;53.96;97155.03;5071070;28;20182;-38
2023/02/21 06:27:48;;;;;;;38.08;14.30;;;;;;;-3.96;52.98;97182.84;5071305;28;20051;-36
2023/02/21 06:30:14;;;;;;;32.72;14.63;;;;;;;-3.58;52.49;97177.91;5083427;28;20032;-38
2023/02/21 06:32:41;;;;;;;35.20;14.02;;;;;;;-3.21;51.51;97175.50;5091422;28;20046;-37
2023/02/21 06:35:07;;;;;;;32.35;13.40;;;;;;;-2.81;50.85;97175.47;5069167;28;20456;-36
2023/02/21 06:37:33;;;;;;;38.95;14.27;;;;;;;-2.41;49.95;97180.53;5069599;28;20503;-38
2023/02/21 06:39:59;;;;;;;35.08;14.55;;;;;;;-2.00;49.19;97181.22;5103095;28;20055;-37
2023/02/21 06:42:25;;;;;;;41.28;15.20;;;;;;;-1.67;48.42;97174.47;5091091;28;20040;-37
2023/02/21 06:44:51;;;;;;;33.10;14.13;;;;;;;-1.36;47.84;97182.94;5083446;28;20522;-36
2023/02/21 06:47:17;;;;;;;35.50;14.48;;;;;;;-1.06;46.75;97187.19;5070962;28;20056;-37
2023/02/21 06:49:43;;;;;;;32.15;13.68;;;;;;;-0.91;45.98;97153.59;5069908;28;20070;-36
2023/02/21 06:52:09;;;;;;;29.70;12.88;;;;;;;-0.45;45.37;97190.47;5069492;28;20051;-37
2023/02/21 06:54:35;;;;;;;36.53;14.73;;;;;;;-0.21;44.62;97186.34;5075511;28;20506;-37
2023/02/21 06:57:01;;;;;;;42.20;15.90;;;;;;;0.05;44.17;97182.94;5106499;27;20047;-36
2023/02/21 06:59:28;;;;;;;42.70;16.08;;;;;;;0.16;43.94;97163.00;5088534;28;20423;-37
2023/02/21 07:01:54;;;;;;;31.88;13.60;;;;;;;0.57;43.51;97189.69;5052664;28;20435;-36
2023/02/21 07:04:20;;;;;;;33.85;15.88;;;;;;;0.52;42.61;97135.34;5070665;28;20032;-37
2023/02/21 07:06:46;;;;;;;38.20;15.48;;;;;;;0.95;41.81;97189.16;5089586;28;20131;-37
2023/02/21 07:09:13;;;;;;;33.03;14.77;;;;;;;1.11;41.50;97194.53;5072548;28;20123;-37
2023/02/21 07:11:39;;;;;;;33.67;14.52;;;;;;;1.41;40.54;97167.00;5054580;28;20040;-37
2023/02/21 07:14:05;;;;;;;31.88;15.27;;;;;;;2.07;39.80;97189.13;5102745;28;20109;-36
2023/02/21 07:16:31;;;;;;;35.72;16.20;;;;;;;2.35;39.13;97194.78;5086001;28;20040;-36
2023/02/21 07:18:57;;;;;;;35.42;16.50;;;;;;;2.64;38.77;97160.22;5089124;28;20568;-36
2023/02/21 07:21:25;;;;;;;32.03;14.25;;;;;;;3.08;37.83;97186.50;5089021;28;20534;-37
2023/02/21 07:23:51;;;;;;;34.75;15.85;;;;;;;3.08;37.48;97145.44;5089042;28;20047;-38
2023/02/21 07:26:16;;;;;;;36.15;16.08;;;;;;;3.71;37.00;97192.16;5075821;28;20044;-38
2023/02/21 07:28:42;;;;;;;36.85;16.88;;;;;;;3.67;36.03;97170.06;5069995;28;20070;-38
2023/02/21 07:31:09;;;;;;;31.23;14.60;;;;;;;3.75;35.97;97199.66;5080647;28;20036;-37
2023/02/21 07:33:36;;;;;;;27.25;13.90;;;;;;;3.64;35.74;97191.63;5088969;28;20040;-37
2023/02/21 07:36:02;;;;;;;31.73;14.98;;;;;;;3.74;35.55;97189.44;5094306;28;20409;-38
2023/02/21 07:38:29;;;;;;;29.23;14.05;;;;;;;4.10;34.75;97169.69;5073403;28;20121;-37
2023/02/21 07:40:56;;;;;;;29.52;13.52;;;;;;;4.37;34.09;97188.06;5088596;28;20082;-37
2023/02/21 07:43:24;;;;;;;28.88;13.98;;;;;;;4.78;33.67;97196.28;5088728;28;20097;-39
2023/02/21 07:45:50;;;;;;;32.35;15.18;;;;;;;5.05;33.60;97196.59;5088351;28;20046;-37
2023/02/21 07:48:16;;;;;;;26.90;13.35;;;;;;;5.08;33.36;97193.88;5089697;28;20083;-38
2023/02/21 07:50:42;;;;;;;29.17;14.32;;;;;;;4.85;32.47;97200.22;5088500;28;20468;-37
2023/02/21 07:53:09;;;;;;;28.67;14.55;;;;;;;4.85;32.88;97192.50;5075298;28;20036;-37
2023/02/21 07:55:35;;;;;;;30.75;14.60;;;;;;;4.90;32.81;97197.41;5085079;28;20514;-37
2023/02/21 07:58:01;;;;;;;26.52;13.93;;;;;;;4.75;32.46;97193.03;5068123;28;20032;-38
2023/02/21 08:00:27;;;;;;;27.33;12.80;;;;;;;4.67;32.01;97191.69;5070512;28;20040;-38
2023/02/21 08:02:53;;;;;;;30.27;14.27;;;;;;;4.15;31.90;97161.75;5081589;28;20474;-37
2023/02/21 08:05:19;;;;;;;28.80;14.05;;;;;;;4.09;32.33;97192.88;5069228;28;20080;-36
2023/02/21 08:07:46;;;;;;;22.52;13.35;;;;;;;4.13;32.53;97197.84;5069200;28;20048;-37
2023/02/21 08:10:17;;;;;;;28.05;13.68;;;;;;;4.50;32.02;97206.31;5067971;28;20074;-37
2023/02/21 08:12:43;;;;;;;28.38;13.63;;;;;;;5.12;31.62;97197.97;5071887;28;20426;-36
2023/02/21 08:15:09;;;;;;;25.75;14.10;;;;;;;5.37;30.90;97171.72;5088067;28;20066;-36
2023/02/21 08:17:34;;;;;;;28.58;13.68;;;;;;;5.46;30.89;97199.56;5070099;28;20790;-38
2023/02/21 08:20:00;;;;;;;24.52;13.20;;;;;;;5.67;30.36;97197.59;5050956;28;20055;-38
2023/02/21 08:22:28;;;;;;;27.27;14.30;;;;;;;5.61;29.93;97197.91;5067736;28;20515;-38
2023/02/21 08:24:54;;;;;;;29.50;14.07;;;;;;;5.55;30.04;97197.31;5070036;28;20075;-37
2023/02/21 08:27:20;;;;;;;29.58;15.00;;;;;;;5.76;31.23;97200.47;5072008;28;20575;-37
2023/02/21 08:29:49;;;;;;;32.03;14.55;;;;;;;5.79;31.01;97204.66;5089142;28;20051;-39
2023/02/21 08:32:15;;;;;;;29.55;14.70;;;;;;;5.74;31.43;97204.06;5074781;28;20131;-38
2023/02/21 08:34:44;;;;;;;26.77;14.43;;;;;;;5.50;31.11;97201.06;5100437;28;20135;-38
2023/02/21 08:37:16;;;;;;;28.80;14.90;;;;;;;5.52;31.39;97196.66;5070909;28;20063;-37
2023/02/21 08:39:46;;;;;;;27.52;14.10;;;;;;;5.99;30.79;97201.84;5081650;28;20465;-37
2023/02/21 08:42:12;;;;;;;28.70;14.35;;;;;;;5.99;30.79;97194.09;5088976;28;20055;-38
2023/02/21 08:44:38;;;;;;;26.80;13.55;;;;;;;6.26;30.57;97209.78;5087523;28;20066;-39
2023/02/21 08:47:04;;;;;;;28.65;14.25;;;;;;;6.02;30.45;97199.06;5066274;28;20079;-37
2023/02/21 08:49:30;;;;;;;23.95;13.40;;;;;;;5.81;31.30;97208.78;5067282;28;20535;-39
2023/02/21 08:51:56;;;;;;;27.67;14.05;;;;;;;5.72;31.73;97177.53;5104009;28;20031;-38
2023/02/21 08:54:22;;;;;;;29.05;14.52;;;;;;;5.75;30.92;97206.59;5088826;28;20421;-39
2023/02/21 08:56:48;;;;;;;25.92;14.30;;;;;;;5.52;31.09;97191.53;5083621;28;20040;-38
2023/02/21 08:59:14;;;;;;;30.75;14.90;;;;;;;5.60;31.01;97204.00;5067173;28;20048;-38
2023/02/21 09:01:40;;;;;;;31.02;14.63;;;;;;;5.32;31.56;97171.16;5070411;28;20032;-36
2023/02/21 09:04:06;;;;;;;33.03;15.32;;;;;;;5.81;31.16;97206.22;5088372;28;20461;-36
2023/02/21 09:06:32;;;;;;;26.85;13.70;;;;;;;6.23;30.75;97203.03;5087878;28;20423;-37
2023/02/21 09:08:59;;;;;;;25.30;13.10;;;;;;;6.29;30.28;97184.63;5050128;28;20044;-36
2023/02/21 09:11:25;;;;;;;28.02;14.45;;;;;;;6.89;30.03;97206.97;5068288;28;20056;-39
2023/02/21 09:13:53;;;;;;;27.75;14.15;;;;;;;7.30;29.55;97207.91;5083083;28;20079;-38
2023/02/21 09:16:19;;;;;;;30.23;14.52;;;;;;;7.55;30.34;97207.22;5083504;28;20466;-37
2023/02/21 09:18:53;;;;;;;31.77;14.57;;;;;;;8.24;29.50;97217.47;5119830;28;20047;-37
2023/02/21 09:21:19;;;;;;;31.38;15.18;;;;;;;8.65;29.64;97211.38;5087087;28;20419;-36
2023/02/21 09:23:45;;;;;;;28.90;15.68;;;;;;;8.85;29.62;97209.13;5087298;28;20044;-37
2023/02/21 09:26:11;;;;;;;30.38;15.52;;;;;;;8.88;29.51;97208.94;5088308;28;20111;-37
2023/02/21 09:28:42;;;;;;;28.10;15.45;;;;;;;8.90;29.58;97204.47;5070378;28;20072;-38
2023/02/21 09:31:08;;;;;;;28.90;14.63;;;;;;;8.59;29.94;97181.53;5068022;28;20041;-37
2023/02/21 09:33:41;;;;;;;26.10;14.80;;;;;;;8.39;30.62;97206.16;5083230;28;20582;-38
2023/02/21 09:36:07;;;;;;;28.77;14.90;;;;;;;8.36;30.63;97201.19;5088153;28;20130;-38
2023/02/21 09:38:34;;;;;;;25.77;14.15;;;;;;;8.27;29.90;97177.66;5079689;28;20052;-37
2023/02/21 09:41:02;;;;;;;25.42;14.45;;;;;;;8.77;29.47;97195.88;5066420;28;20062;-37
2023/02/21 09:43:35;;;;;;;33.07;15.90;;;;;;;8.85;29.18;97203.13;5100253;28;20048;-37
2023/02/21 09:46:04;;;;;;;30.95;15.45;;;;;;;9.03;28.16;97201.91;5083364;28;20543;-37
2023/02/21 09:48:30;;;;;;;26.50;14.43;;;;;;;9.02;28.22;97200.22;5049588;28;20102;-37
2023/02/21 09:50:58;;;;;;;28.55;14.40;;;;;;;7.72;28.73;97137.19;5085866;28;20507;-37
2023/02/21 09:53:34;;;;;;;30.13;14.85;;;;;;;6.52;28.89;97205.72;5071232;28;20503;-38
2023/02/21 09:56:04;;;;;;;26.35;12.82;;;;;;;5.30;29.46;97204.72;5049854;28;20054;-38
2023/02/21 09:58:30;;;;;;;24.63;14.60;;;;;;;4.02;30.65;97202.66;5066483;28;20119;-37
2023/02/21 10:00:58;;;;;;;27.67;13.90;;;;;;;4.23;30.59;97204.19;5074402;28;20131;-37
2023/02/21 10:03:43;;;;;;;26.55;13.35;;;;;;;5.97;30.58;97208.00;5057733;28;20437;-37
2023/02/21 10:06:28;;;;;;;28.63;14.13;;;;;;;6.97;29.28;97207.34;5067698;28;20461;-37
2023/02/21 10:08:58;;;;;;;23.10;11.60;;;;;;;7.50;29.66;97202.34;5067583;28;20124;-37
2023/02/21 10:11:32;;;;;;;17.73;10.10;;;;;;;7.80;28.81;97189.25;5054827;28;20129;-37
2023/02/21 10:14:17;;;;;;;18.75;10.88;;;;;;;7.48;28.80;97211.97;5067581;28;20072;-37
2023/02/21 10:17:10;;;;;;;20.35;10.65;;;;;;;7.46;27.84;97185.38;5083090;28;20094;-37
2023/02/21 10:19:41;;;;;;;20.67;10.75;;;;;;;7.34;28.62;97214.53;5082012;28;20036;-37
2023/02/21 10:22:21;;;;;;;21.75;11.38;;;;;;;5.87;29.01;97213.66;5086430;28;20090;-38
2023/02/21 10:24:48;;;;;;;24.15;11.27;;;;;;;4.54;30.49;97218.13;5088955;28;20043;-37
2023/02/21 10:27:26;;;;;;;21.30;10.63;;;;;;;3.42;31.41;97219.19;5081376;28;20101;-38
2023/02/21 10:30:04;;;;;;;19.38;10.45;;;;;;;2.73;32.50;97223.09;5086579;28;20074;-36
2023/02/21 10:32:31;;;;;;;21.10;10.25;;;;;;;1.91;32.83;97191.44;5069641;28;20607;-37
2023/02/21 10:34:58;;;;;;;21.63;10.65;;;;;;;1.63;33.78;97226.69;5089950;28;20047;-38
2023/02/21 10:37:40;;;;;;;21.30;10.60;;;;;;;1.52;34.19;97227.09;5089946;28;20093;-36
2023/02/21 10:40:14;;;;;;;23.70;12.32;;;;;;;1.65;34.29;97232.63;5088041;28;20036;-39
2023/02/21 10:42:44;;;;;;;22.55;10.95;;;;;;;1.88;34.38;97236.88;5089954;28;20036;-38
2023/02/21 10:45:10;;;;;;;;;;;;;;;1.79;34.17;97234.63;5090246;28;20036;-37
2023/02/21 10:48:00;;;;;;;20.75;10.48;;;;;;;1.44;34.63;97243.66;5090480;28;20015;-38
2023/02/21 10:50:57;;;;;;;21.40;10.52;;;;;;;1.44;34.91;97246.22;5103307;28;20124;-37
2023/02/21 10:53:25;;;;;;;22.08;10.07;;;;;;;3.17;33.17;97247.69;5084469;28;20127;-36
2023/02/21 10:56:06;;;;;;;18.97;9.37;;;;;;;4.65;31.91;97251.88;5090911;28;20051;-37
2023/02/21 10:58:32;;;;;;;21.13;10.07;;;;;;;5.49;30.65;97248.38;5083658;28;20360;-37
2023/02/21 11:01:13;;;;;;;21.55;9.75;;;;;;;6.47;30.12;97254.16;5070390;28;20044;-37
2023/02/21 11:03:45;;;;;;;21.15;10.50;;;;;;;7.23;29.09;97253.13;5058955;28;20780;-37
2023/02/21 11:06:23;;;;;;;20.90;10.43;;;;;;;8.00;28.92;97257.88;5072427;28;20097;-36
2023/02/21 11:08:49;;;;;;;19.55;9.93;;;;;;;7.20;28.96;97272.22;5083481;28;20423;-40
2023/02/21 11:11:15;;;;;;;24.60;11.35;;;;;;;6.62;29.55;97242.97;5069123;28;20277;-38
2023/02/21 11:13:41;;;;;;;18.63;10.30;;;;;;;6.70;28.87;97215.78;5085730;28;20051;-37
2023/02/21 11:16:18;;;;;;;21.80;11.23;;;;;;;7.13;28.27;97264.91;5069077;28;20208;-37
2023/02/21 11:18:44;;;;;;;19.85;10.98;;;;;;;7.27;28.54;97267.53;5040986;28;20047;-37
2023/02/21 11:21:16;;;;;;;17.55;10.18;;;;;;;7.31;28.53;97235.41;5090173;28;20570;-36
2023/02/21 11:23:56;;;;;;;23.27;11.07;;;;;;;7.77;27.82;97264.47;5089098;28;20048;-37
2023/02/21 11:26:22;;;;;;;21.77;11.35;;;;;;;8.23;27.09;97266.75;5072432;28;20066;-38
2023/02/21 11:28:48;;;;;;;22.52;11.15;;;;;;;9.07;26.84;97265.53;5088666;28;20515;-37
2023/02/21 11:31:31;;;;;;;20.08;10.77;;;;;;;9.51;26.35;97272.91;5090317;28;20450;-37
2023/02/21 11:33:59;;;;;;;22.00;12.13;;;;;;;9.95;26.52;97277.59;5084025;28;20530;-37
2023/02/21 11:36:28;;;;;;;20.85;11.10;;;;;;;8.91;26.23;97275.25;5051660;28;20079;-37
2023/02/21 11:39:20;;;;;;;22.73;12.70;;;;;;;7.71;27.33;97282.09;5076837;28;20059;-38
2023/02/21 11:41:51;;;;;;;26.23;13.27;;;;;;;6.76;28.13;97263.66;5088776;28;20044;-37
2023/02/21 11:44:38;;;;;;;26.40;13.75;;;;;;;5.97;28.68;97289.59;5090159;28;20044;-37
2023/02/21 11:47:22;;;;;;;25.42;12.82;;;;;;;5.62;29.25;97295.75;5088341;28;20059;-37
2023/02/21 11:50:09;;;;;;;21.17;11.50;;;;;;;6.23;28.70;97298.47;5087971;28;20038;-39
2023/02/21 11:53:17;;;;;;;24.23;11.90;;;;;;;7.17;28.29;97297.44;5079848;28;20037;-39
2023/02/21 11:56:25;;;;;;;25.02;12.55;;;;;;;7.92;27.48;97275.59;5027320;28;20045;-36
2023/02/21 11:59:48;;;;;;;21.02;11.02;;;;;;;8.42;27.06;97308.69;5007422;28;20045;-37
2023/02/21 12:02:33;;;;;;;20.83;10.35;;;;;;;8.47;26.81;97304.06;5047184;28;20077;-37
2023/02/21 12:05:25;;;;;;;26.55;11.98;;;;;;;8.72;26.11;97298.97;5047174;28;20245;-36
2023/02/21 12:08:15;;;;;;;22.60;11.95;;;;;;;8.72;25.90;97303.31;5044090;28;20050;-38
2023/02/21 12:10:59;;;;;;;19.77;9.98;;;;;;;8.64;26.72;97305.53;5031194;28;20056;-37
2023/02/21 12:14:02;;;;;;;21.75;11.35;;;;;;;8.33;26.21;97309.25;5046928;28;20045;-36
2023/02/21 12:16:51;;;;;;;21.45;11.77;;;;;;;8.24;26.03;97312.41;5046860;28;20037;-36
2023/02/21 12:19:38;;;;;;;18.08;11.18;;;;;;;8.57;25.97;97323.25;5031890;28;20053;-35
2023/02/21 12:22:29;;;;;;;20.50;10.77;;;;;;;8.24;26.17;97320.16;5049764;28;20044;-36
2023/02/21 12:25:16;;;;;;;18.75;10.50;;;;;;;7.96;25.83;97327.06;5066497;28;20419;-37
2023/02/21 12:28:02;;;;;;;22.33;10.93;;;;;;;7.83;25.92;97331.31;5033436;28;20036;-37
2023/02/21 12:30:36;;;;;;;20.42;10.88;;;;;;;7.55;25.80;97334.72;5054726;28;20586;-37
2023/02/21 12:33:11;;;;;;;21.38;11.07;;;;;;;6.68;26.60;97331.22;5052193;28;20101;-38
2023/02/21 12:35:47;;;;;;;20.50;11.30;;;;;;;6.00;27.48;97334.19;5067852;28;20518;-36
2023/02/21 12:38:27;;;;;;;21.45;11.07;;;;;;;6.13;27.71;97341.16;5073617;28;20096;-37
2023/02/21 12:41:04;;;;;;;19.25;10.38;;;;;;;6.27;27.25;97340.44;5082091;28;20131;-36
2023/02/21 12:43:51;;;;;;;16.42;9.73;;;;;;;5.36;27.37;97346.06;5089114;28;20523;-39
2023/02/21 12:46:38;;;;;;;18.05;9.55;;;;;;;4.65;28.24;97353.06;5088843;28;20097;-36
2023/02/21 12:49:36;;;;;;;15.90;8.82;;;;;;;3.76;29.11;97363.19;5070367;28;20139;-37
2023/02/21 12:52:13;;;;;;;20.77;9.50;;;;;;;3.34;29.36;97339.38;5060838;28;20075;-44
2023/02/21 12:54:45;;;;;;;20.65;9.25;;;;;;;2.85;29.90;97371.38;5068544;28;20051;-38
2023/02/21 12:57:37;;;;;;;19.40;9.15;;;;;;;2.67;29.90;97374.69;5068634;28;20044;-38
2023/02/21 13:00:21;;;;;;;19.27;10.20;;;;;;;2.28;30.43;97383.03;5069194;28;20116;-36
2023/02/21 13:03:08;;;;;;;18.00;9.48;;;;;;;1.80;30.66;97379.72;5087492;28;20048;-36
2023/02/21 13:05:48;;;;;;;19.33;9.60;;;;;;;1.62;31.12;97388.94;5081585;28;20511;-37
2023/02/21 13:08:13;;;;;;;;;;;;;;;2.17;30.69;97392.88;5050886;28;20048;-37
2023/02/21 13:10:52;;;;;;;17.40;9.05;;;;;;;2.94;30.13;97397.50;5083989;28;20457;-36
2023/02/21 13:13:23;;;;;;;20.95;9.40;;;;;;;3.30;29.78;97395.13;5050329;28;20067;-37
2023/02/21 13:15:52;;;;;;;19.88;10.27;;;;;;;3.37;29.88;97400.84;5066877;28;20500;-36
2023/02/21 13:18:31;;;;;;;19.38;10.02;;;;;;;3.31;30.01;97411.38;5068229;28;20083;-37
2023/02/21 13:21:01;;;;;;;20.92;10.70;;;;;;;3.06;29.97;97409.00;5075984;28;20032;-37
2023/02/21 13:23:49;;;;;;;21.77;10.32;;;;;;;2.53;30.06;97413.69;5088517;28;20086;-37
2023/02/21 13:26:49;;;;;;;21.98;10.27;;;;;;;1.92;31.01;97420.28;5088364;28;20028;-36
2023/02/21 13:29:23;;;;;;;21.65;9.20;;;;;;;1.16;31.66;97426.31;5087370;28;20444;-38
2023/02/21 13:32:10;;;;;;;18.77;9.07;;;;;;;0.24;32.39;97388.38;5084981;28;20040;-38
2023/02/21 13:34:40;;;;;;;24.15;10.40;;;;;;;-0.10;33.35;97435.31;5087015;28;20036;-37
2023/02/21 13:37:13;;;;;;;23.23;9.68;;;;;;;-0.72;33.89;97433.63;5071035;28;20124;-37
2023/02/21 13:39:44;;;;;;;21.42;9.30;;;;;;;-1.18;34.60;97442.41;5081314;28;20055;-36
2023/02/21 13:42:30;;;;;;;22.33;9.07;;;;;;;-1.43;35.23;97439.59;5065760;28;20095;-37
2023/02/21 13:45:11;;;;;;;19.90;8.52;;;;;;;-1.52;35.39;97444.06;5069620;28;20062;-38
2023/02/21 13:48:16;;;;;;;21.05;9.40;;;;;;;-1.58;35.82;97442.50;5072118;28;20058;-38
2023/02/21 13:50:47;;;;;;;18.55;8.35;;;;;;;-1.81;36.06;97452.34;5056929;28;20054;-40
2023/02/21 13:53:33;;;;;;;21.42;9.73;;;;;;;-2.31;36.60;97463.53;5079904;28;20051;-40
2023/02/21 13:55:59;;;;;;;21.20;8.90;;;;;;;-2.78;37.33;97465.25;5095510;28;20048;-40
2023/02/21 13:58:34;;;;;;;19.58;8.70;;;;;;;-3.11;37.61;97474.25;5075817;28;20055;-38
2023/02/21 14:01:28;;;;;;;21.05;8.18;;;;;;;-3.25;38.24;97478.72;5093361;28;20044;-41